Benton, KY (42025)

6:31 AM CST on December 06, 2016 (GMT -0600)
Jason's House | | Change Station

Elev 456 ft 36.85 °N, 88.35 °W | Updated 9 seconds ago

Rain
Rain
41.8 °F
Feels Like 42 °F
N
3.0
Wind Variable Wind from WNW
Gusts 7.0 mph

Today
High -- | Low -- °F
--% Chance of Precip.
Yesterday
High -- | Low -- °F
Precip. -- in
Pressure 29.64 in
Visibility 9.0 miles
Clouds Mostly Cloudy 500 ft
Overcast 3400 ft
Windchill 42 °F
Dew Point 41 °F
Humidity 96%
Rainfall 1.07 in
Snow Depth Not available.
6:52 AM 4:36 PM
Waxing Crescent, 41% visible
METAR KCEY 061155Z AUTO 34008KT 9SM BKN005 OVC034 05/05 A2964 RMK AO1 P0010
Pressure 29.64 in
Visibility 9.0 miles
Clouds Mostly Cloudy 500 ft
Overcast 3400 ft
Windchill 42 °F
Dew Point 41 °F
Humidity 96%
Rainfall 1.07 in
Snow Depth Not available.
6:52 AM 4:36 PM
Waxing Crescent, 41% visible
METAR KCEY 061155Z AUTO 34008KT 9SM BKN005 OVC034 05/05 A2964 RMK AO1 P0010

10-Day Weather Forecast

Almanac

Astronomy

Dec. 06, 2016 Rise Set
Actual Time
Civil Twilight
Nautical Twilight
Astronomical Twilight
Moon
Length of Visible Light
Length of Day
Tomorrow will be .
, % of the Moon is Illuminated

Today's Extremes

State Highs State Lows

Community

WunderPhotos

Upload Photos

1,955,936 photos uploaded!

WunderBlog® & News

Nearby

Air Quality

  Air Quality AQ Index Pollutant
Not available.

Snow Depth

Station Depth Elevation

Earthquake Activity

City Distance Mag. Time & Date
Minimum magnitude displayed is 2.5.

Coastal Water Temperatures

Place Temperature

Stations

Nearby Weather Stations

Station Location Temp. Windchill Dew Point Humidity Wind Precip. Elev Updated Type
                   

Watches & Warnings

There are currently no watches in effect.